Middle Georgia Regional Airport Airport (MCN)

 

Airport Diagram
Current Weather/Forecast (VFR Conditions)
METAR KMCN 202353Z AUTO 24007KT 10SM CLR 30/21 A2999 RMK AO2 SLP151 T03000206 10333 20300 58006
TAF KMCN 202322Z 2100/2124 22007KT P6SM VCSH SCT040 FM210200 25003KT P6SM FEW040 SCT250 FM211500 24005KT P6SM FEW035 SCT200 FM211900 22007KT P6SM VCSH SCT050

All Charts
General
Chart Name Download
AIRPORT DIAGRAM
TAKEOFF MINIMUMS
ALTERNATE MINIMUMS

Approaches
Chart Name Download
ILS OR LOC RWY 05
ILS RWY 05 (SA CAT I - II)
RNAV (GPS) RWY 05
RNAV (GPS) RWY 14
RNAV (GPS) RWY 23
RNAV (GPS) RWY 32
VOR RWY 14
VOR RWY 23


Inbound Traffic (Arrivals)

No inbound traffic.


Outbound Traffic (Departures)

No outbound traffic.